createdAt,value
2018-10-01T00:03:35.855Z,95529.3
2018-10-01T00:08:32.116Z,95523.8
2018-10-01T00:13:29.002Z,95407.4
2018-10-01T00:18:25.415Z,95515.6
2018-10-01T00:23:21.876Z,95502.9
2018-10-01T00:28:18.175Z,95493.8
2018-10-01T00:33:14.480Z,95486.4
2018-10-01T00:38:10.429Z,95483.2
2018-10-01T00:43:06.686Z,95481
2018-10-01T00:48:03.026Z,95478.1
2018-10-01T00:52:59.216Z,95480.4
2018-10-01T00:57:55.769Z,95467.2
2018-10-01T01:02:52.426Z,95466.6
2018-10-01T01:07:48.847Z,95462.7
2018-10-01T01:12:45.164Z,95457.4
2018-10-01T01:17:41.610Z,95447.6
2018-10-01T01:22:38.174Z,95441.4
2018-10-01T01:27:34.669Z,95327.5
2018-10-01T01:32:30.804Z,95438.8
2018-10-01T01:37:27.595Z,95434
2018-10-01T01:42:23.678Z,95427
2018-10-01T01:47:20.079Z,95425.6
2018-10-01T01:52:16.997Z,95307.9
2018-10-01T01:57:13.411Z,95407.6
2018-10-01T02:02:09.853Z,95406.6
2018-10-01T02:07:06.087Z,95410.1
2018-10-01T02:12:02.340Z,95400.6
2018-10-01T02:16:58.172Z,95395.6
2018-10-01T02:21:54.403Z,95388.7
2018-10-01T02:26:50.596Z,95382.8
2018-10-01T02:31:47.296Z,95389.3
2018-10-01T02:36:43.627Z,95380.2
2018-10-01T02:41:40.044Z,95374.5
2018-10-01T02:46:36.436Z,95375.5
2018-10-01T02:51:32.821Z,95364.9
2018-10-01T02:56:29.076Z,95285.4
2018-10-01T03:01:25.348Z,95319.3
2018-10-01T03:06:22.103Z,95351.1
2018-10-01T03:11:18.206Z,95341.2
2018-10-01T03:16:14.314Z,95343.2
2018-10-01T03:21:10.529Z,95342.6
2018-10-01T03:26:07.550Z,95345.7
2018-10-01T03:31:03.735Z,95336.9
2018-10-01T03:36:00.369Z,95326.4
2018-10-01T03:40:56.274Z,95350.6
2018-10-01T03:45:52.544Z,95322.6
2018-10-01T03:50:48.997Z,95324.3
2018-10-01T03:55:45.706Z,95316.4
2018-10-01T04:00:42.392Z,95314.7
2018-10-01T04:05:39.005Z,95308.4
2018-10-01T04:10:35.339Z,95306
2018-10-01T04:15:31.792Z,95299.1
2018-10-01T04:20:28.207Z,95297.4
2018-10-01T04:25:24.388Z,95295.9
2018-10-01T04:30:21.120Z,95285.6
2018-10-01T04:35:17.380Z,95282.2
2018-10-01T04:40:13.855Z,95276
2018-10-01T04:45:10.297Z,95275.5
2018-10-01T04:50:06.567Z,95157.3
2018-10-01T04:55:01.289Z,95158.1
2018-10-01T04:59:56.417Z,95151
2018-10-01T05:04:53.367Z,95148.3
2018-10-01T05:09:49.608Z,95269.3
2018-10-01T05:14:45.695Z,95260.6
2018-10-01T05:19:41.876Z,95256.1
2018-10-01T05:24:38.601Z,95256.5
2018-10-01T05:29:34.765Z,95257.6
2018-10-01T05:34:31.056Z,95253.6
2018-10-01T05:39:27.401Z,95253
2018-10-01T05:44:22.790Z,95248.9
2018-10-01T05:49:19.082Z,95248.8
2018-10-01T05:54:15.654Z,95257.9
2018-10-01T05:59:12.127Z,95255.8
2018-10-01T06:04:08.246Z,95259.2
2018-10-01T06:09:04.595Z,95261.8
2018-10-01T06:14:01.123Z,95253.5
2018-10-01T06:18:56.517Z,95146.7
2018-10-01T06:23:52.648Z,95247
2018-10-01T06:28:48.886Z,95251.7
2018-10-01T06:33:44.845Z,95139.1
2018-10-01T06:38:41.635Z,95260
2018-10-01T06:43:36.604Z,95262.1
2018-10-01T06:48:32.788Z,95260.7
2018-10-01T06:53:30.239Z,95258
2018-10-01T06:58:26.170Z,95140.9
2018-10-01T07:03:24.355Z,95263.1
2018-10-01T07:08:20.430Z,95146.8
2018-10-01T07:13:16.983Z,95149.8
2018-10-01T07:18:13.315Z,95264.4
2018-10-01T07:23:09.813Z,95259
2018-10-01T07:28:06.460Z,95265.1
2018-10-01T07:33:05.988Z,95257.8
2018-10-01T07:38:01.511Z,95259.9
2018-10-01T07:43:01.903Z,95044.5
2018-10-01T07:47:57.124Z,95250.7
2018-10-01T07:52:53.799Z,95246.6
2018-10-01T07:57:49.631Z,95246.7
2018-10-01T08:02:46.201Z,95240
2018-10-01T08:07:42.403Z,95242.7
2018-10-01T08:12:38.628Z,95239.8
2018-10-01T08:17:35.195Z,95236.2
2018-10-01T08:22:31.434Z,95225.2
2018-10-01T08:27:27.852Z,95226.8
2018-10-01T08:32:24.336Z,95223.8
2018-10-01T08:37:20.698Z,95218
2018-10-01T08:42:17.791Z,95099.2
2018-10-01T08:47:14.747Z,95205.8
2018-10-01T08:52:10.871Z,95195.5
2018-10-01T08:57:06.947Z,95084.2
2018-10-01T09:02:04.079Z,95188.5
2018-10-01T09:07:00.283Z,95080.7
2018-10-01T09:12:00.889Z,95024.9
2018-10-01T09:16:56.320Z,95175.6
2018-10-01T09:21:52.703Z,95069.2
2018-10-01T09:26:49.226Z,95166.1
2018-10-01T09:31:45.811Z,95047.4
2018-10-01T09:36:42.101Z,95057.1
2018-10-01T09:41:38.480Z,95045.6
2018-10-01T09:46:35.178Z,95149
2018-10-01T09:51:32.163Z,95151.1
2018-10-01T09:56:28.590Z,95146.5
2018-10-01T10:01:23.586Z,95268.3
2018-10-01T10:06:19.647Z,95130.3
2018-10-01T10:11:16.008Z,95018.7
2018-10-01T10:16:12.687Z,95011
2018-10-01T10:21:09.476Z,95110.7
2018-10-01T10:26:05.980Z,95110.2
2018-10-01T10:31:02.403Z,95109
2018-10-01T10:35:58.813Z,95142.4
2018-10-01T10:40:55.148Z,95088.1
2018-10-01T10:45:51.446Z,95072.1
2018-10-01T10:50:48.569Z,95134.1
2018-10-01T10:55:45.826Z,94958.2
2018-10-01T11:00:42.505Z,94952
2018-10-01T11:05:38.943Z,94939.6
2018-10-01T11:10:39.490Z,95035.5
2018-10-01T11:15:34.825Z,95024.9
2018-10-01T11:20:31.014Z,94913.6
2018-10-01T11:25:27.738Z,94917.6
2018-10-01T11:30:24.304Z,94910
2018-10-01T11:35:21.207Z,94897.9
2018-10-01T11:40:17.611Z,94899.1
2018-10-01T11:45:13.875Z,94888.8
2018-10-01T11:50:10.571Z,94890
2018-10-01T11:55:07.195Z,94894.2
2018-10-01T12:00:03.791Z,94898
2018-10-01T12:05:00.366Z,94899.9
2018-10-01T12:09:57.670Z,94890.3
2018-10-01T12:14:53.816Z,94889.6
2018-10-01T12:19:50.275Z,94880.6
2018-10-01T12:24:46.723Z,94875.4
2018-10-01T12:29:43.530Z,94842.9
2018-10-01T12:34:39.930Z,94864.1
2018-10-01T12:39:36.390Z,94956.4
2018-10-01T12:44:33.459Z,95009.8
2018-10-01T12:49:29.587Z,94956.9
2018-10-01T12:54:25.911Z,94861.4
2018-10-01T12:59:23.922Z,94852.4
2018-10-01T13:04:20.076Z,94843.8
2018-10-01T13:09:16.453Z,94846.3
2018-10-01T13:14:12.626Z,94838.5
2018-10-01T13:19:09.037Z,94822.5
2018-10-01T13:24:05.370Z,94836.1
2018-10-01T13:29:03.516Z,94732.5
2018-10-01T13:33:59.276Z,94816.1
2018-10-01T13:38:55.627Z,94814
2018-10-01T13:43:52.584Z,94915.6
2018-10-01T13:48:48.902Z,94813.1
2018-10-01T13:53:45.252Z,94815.2
2018-10-01T13:58:42.352Z,94810.8
2018-10-01T14:03:38.159Z,94801.3
2018-10-01T14:08:34.508Z,94794.5
2018-10-01T14:13:31.156Z,94803.5
2018-10-01T14:18:27.240Z,94813.6
2018-10-01T14:23:23.619Z,94811.1
2018-10-01T14:28:19.513Z,94848.1
2018-10-01T14:33:16.505Z,94816.3
2018-10-01T14:38:12.570Z,94825.8
2018-10-01T14:43:09.198Z,94816.8
2018-10-01T14:48:05.138Z,94815.5
2018-10-01T14:53:01.461Z,94914.8
2018-10-01T14:57:58.182Z,94813.2
2018-10-01T15:02:54.580Z,94798.5
2018-10-01T15:07:51.070Z,94995
2018-10-01T15:12:47.262Z,94788.7
2018-10-01T15:17:43.213Z,94894.7
2018-10-01T15:22:39.481Z,94797.9
2018-10-01T15:27:35.869Z,94804.9
2018-10-01T15:32:32.708Z,94913.5
2018-10-01T15:37:28.964Z,94712.9
2018-10-01T15:42:25.831Z,94916.4
2018-10-01T15:47:22.260Z,94920
2018-10-01T15:52:19.172Z,94811
2018-10-01T15:57:15.581Z,94815.4
2018-10-01T16:02:12.105Z,94816.1
2018-10-01T16:07:08.876Z,94827.4
2018-10-01T16:12:05.129Z,94829.3
2018-10-01T16:17:02.144Z,94830.7
2018-10-01T16:21:58.065Z,94976.7
2018-10-01T16:26:54.495Z,94989.6
2018-10-01T16:31:51.078Z,95091.8
2018-10-01T16:36:47.239Z,94958.1
2018-10-01T16:41:43.403Z,94962.8
2018-10-01T16:46:41.153Z,94973.2
2018-10-01T16:51:37.173Z,95026.4
2018-10-01T16:56:34.050Z,94981.3
2018-10-01T17:01:30.458Z,94982.8
2018-10-01T17:06:26.880Z,95001
2018-10-01T17:11:23.290Z,94999.7
2018-10-01T17:16:19.771Z,94999.4
2018-10-01T17:21:16.201Z,95011.3
2018-10-01T17:26:12.561Z,95027
2018-10-01T17:31:08.787Z,95036.1
2018-10-01T17:36:05.060Z,95041.9
2018-10-01T17:41:01.580Z,95046.2
2018-10-01T17:45:57.881Z,95052.8
2018-10-01T17:50:54.458Z,95156.5
2018-10-01T17:55:51.691Z,95060
2018-10-01T18:00:47.872Z,95062.8
2018-10-01T18:05:44.271Z,95065.7
2018-10-01T18:10:40.571Z,95060.7
2018-10-01T18:15:36.920Z,95066.7
2018-10-01T18:20:33.303Z,95070.5
2018-10-01T18:25:29.810Z,95071.4
2018-10-01T18:30:26.007Z,95073.9
2018-10-01T18:35:21.987Z,95074.1
2018-10-01T18:40:18.188Z,95094.7
2018-10-01T18:45:14.579Z,95055
2018-10-01T18:50:10.755Z,95100.2
2018-10-01T18:55:06.982Z,95099.2
2018-10-01T19:00:03.658Z,94997.6
2018-10-01T19:04:59.846Z,95107.2
2018-10-01T19:09:55.371Z,95107
2018-10-01T19:14:51.788Z,95109.6
2018-10-01T19:19:47.909Z,95116.8
2018-10-01T19:24:44.306Z,95116.8
2018-10-01T19:29:40.649Z,95122.4
2018-10-01T19:34:37.046Z,95122
2018-10-01T19:39:33.405Z,95121.1
2018-10-01T19:44:29.823Z,95126.4
2018-10-01T19:49:25.994Z,95016.2
2018-10-01T19:54:22.090Z,95123.3
2018-10-01T19:59:18.549Z,95019.1
2018-10-01T20:04:14.883Z,95142.6
2018-10-01T20:09:12.381Z,95139
2018-10-01T20:14:08.463Z,95140
2018-10-01T20:19:05.032Z,95139.3
2018-10-01T20:24:01.533Z,95140
2018-10-01T20:28:58.253Z,95142.2
2018-10-01T20:33:54.469Z,95142
2018-10-01T20:38:50.887Z,95142.8
2018-10-01T20:43:47.382Z,95144.8
2018-10-01T20:48:43.741Z,95145.5
2018-10-01T20:53:41.117Z,95184.5
2018-10-01T20:58:37.438Z,95005.3
2018-10-01T21:03:34.146Z,95163.3
2018-10-01T21:08:30.484Z,95173.5
2018-10-01T21:13:26.917Z,95173.2
2018-10-01T21:18:23.630Z,95073
2018-10-01T21:23:20.219Z,95173.2
2018-10-01T21:28:16.397Z,95176.8
2018-10-01T21:33:12.729Z,95071.6
2018-10-01T21:38:09.120Z,95139.8
2018-10-01T21:43:05.371Z,95177.6
2018-10-01T21:48:01.702Z,95175.1
2018-10-01T21:52:58.247Z,95180.9
2018-10-01T21:57:54.833Z,95183.1
2018-10-01T22:02:51.507Z,95189.9
2018-10-01T22:07:48.194Z,95195.8
2018-10-01T22:12:44.759Z,95183
2018-10-01T22:17:41.127Z,95188.1
2018-10-01T22:22:37.312Z,95191.3
2018-10-01T22:27:33.909Z,95193.2
2018-10-01T22:32:30.313Z,95190.3
2018-10-01T22:37:26.647Z,95202.6
2018-10-01T22:42:23.270Z,95202.9
2018-10-01T22:47:19.586Z,95211.5
2018-10-01T22:52:15.958Z,95212
2018-10-01T22:57:12.276Z,95230.5
2018-10-01T23:02:08.904Z,95126.4
2018-10-01T23:07:05.374Z,95081
2018-10-01T23:12:01.906Z,95243.5
2018-10-01T23:16:58.084Z,95246.3
2018-10-01T23:21:54.475Z,95228.4
2018-10-01T23:26:50.697Z,95231.6
2018-10-01T23:31:47.316Z,95120.3
2018-10-01T23:36:43.745Z,95225
2018-10-01T23:41:40.256Z,95236.9
2018-10-01T23:46:36.732Z,95235
2018-10-01T23:51:33.416Z,95242.4
2018-10-01T23:56:29.796Z,95253
